sensor_id;sensor_type;location;lat;lon;timestamp;P1;durP1;ratioP1;P2;durP2;ratioP2
41661;SDS011;27351;45.992;12.666;2023-05-27T00:01:01;7.47;;;4.00;;
41661;SDS011;27351;45.992;12.666;2023-05-27T00:03:26;6.17;;;3.60;;
41661;SDS011;27351;45.992;12.666;2023-05-27T00:05:52;8.30;;;3.72;;
41661;SDS011;27351;45.992;12.666;2023-05-27T00:08:17;8.90;;;3.70;;
41661;SDS011;27351;45.992;12.666;2023-05-27T00:10:44;9.20;;;3.65;;
41661;SDS011;27351;45.992;12.666;2023-05-27T00:13:10;7.70;;;3.35;;
41661;SDS011;27351;45.992;12.666;2023-05-27T00:15:37;6.50;;;3.63;;
41661;SDS011;27351;45.992;12.666;2023-05-27T00:18:03;8.03;;;3.70;;
41661;SDS011;27351;45.992;12.666;2023-05-27T00:20:29;7.20;;;3.60;;
41661;SDS011;27351;45.992;12.666;2023-05-27T00:22:58;7.67;;;3.47;;
41661;SDS011;27351;45.992;12.666;2023-05-27T00:25:25;6.93;;;3.63;;
41661;SDS011;27351;45.992;12.666;2023-05-27T00:27:50;7.10;;;3.35;;
41661;SDS011;27351;45.992;12.666;2023-05-27T00:30:16;7.53;;;4.00;;
41661;SDS011;27351;45.992;12.666;2023-05-27T00:32:42;9.20;;;4.00;;
41661;SDS011;27351;45.992;12.666;2023-05-27T00:35:07;7.25;;;3.88;;
41661;SDS011;27351;45.992;12.666;2023-05-27T00:37:33;7.22;;;3.60;;
41661;SDS011;27351;45.992;12.666;2023-05-27T00:39:59;7.82;;;3.80;;
41661;SDS011;27351;45.992;12.666;2023-05-27T00:42:24;8.38;;;3.90;;
41661;SDS011;27351;45.992;12.666;2023-05-27T00:44:51;9.07;;;4.25;;
41661;SDS011;27351;45.992;12.666;2023-05-27T00:47:17;6.63;;;3.60;;
41661;SDS011;27351;45.992;12.666;2023-05-27T00:49:43;8.07;;;3.80;;
41661;SDS011;27351;45.992;12.666;2023-05-27T00:52:09;6.95;;;3.55;;
41661;SDS011;27351;45.992;12.666;2023-05-27T00:54:35;6.68;;;3.60;;
41661;SDS011;27351;45.992;12.666;2023-05-27T00:57:00;8.20;;;3.50;;
41661;SDS011;27351;45.992;12.666;2023-05-27T00:59:27;6.60;;;3.70;;
41661;SDS011;27351;45.992;12.666;2023-05-27T01:01:53;13.83;;;3.70;;
41661;SDS011;27351;45.992;12.666;2023-05-27T01:04:18;5.97;;;3.23;;
41661;SDS011;27351;45.992;12.666;2023-05-27T01:06:55;6.10;;;3.20;;
41661;SDS011;27351;45.992;12.666;2023-05-27T01:11:58;6.93;;;3.55;;
41661;SDS011;27351;45.992;12.666;2023-05-27T01:14:25;7.10;;;3.60;;
41661;SDS011;27351;45.992;12.666;2023-05-27T01:16:51;6.05;;;3.05;;
41661;SDS011;27351;45.992;12.666;2023-05-27T01:19:30;6.57;;;3.38;;
41661;SDS011;27351;45.992;12.666;2023-05-27T01:21:55;7.63;;;3.53;;
41661;SDS011;27351;45.992;12.666;2023-05-27T01:24:22;5.75;;;3.40;;
41661;SDS011;27351;45.992;12.666;2023-05-27T01:26:48;5.63;;;3.30;;
41661;SDS011;27351;45.992;12.666;2023-05-27T01:29:15;6.50;;;3.33;;
41661;SDS011;27351;45.992;12.666;2023-05-27T01:31:41;7.43;;;4.20;;
41661;SDS011;27351;45.992;12.666;2023-05-27T01:34:09;7.10;;;3.60;;
41661;SDS011;27351;45.992;12.666;2023-05-27T01:36:43;5.78;;;3.55;;
41661;SDS011;27351;45.992;12.666;2023-05-27T01:39:10;7.07;;;3.70;;
41661;SDS011;27351;45.992;12.666;2023-05-27T01:41:38;6.47;;;3.55;;
41661;SDS011;27351;45.992;12.666;2023-05-27T01:44:04;7.10;;;4.13;;
41661;SDS011;27351;45.992;12.666;2023-05-27T01:46:32;9.15;;;4.05;;
41661;SDS011;27351;45.992;12.666;2023-05-27T01:48:57;7.55;;;3.75;;
41661;SDS011;27351;45.992;12.666;2023-05-27T01:51:23;8.43;;;3.88;;
41661;SDS011;27351;45.992;12.666;2023-05-27T01:53:48;9.10;;;4.43;;
41661;SDS011;27351;45.992;12.666;2023-05-27T01:56:14;9.23;;;4.47;;
41661;SDS011;27351;45.992;12.666;2023-05-27T01:58:41;7.70;;;4.20;;
41661;SDS011;27351;45.992;12.666;2023-05-27T02:01:06;7.57;;;4.10;;
41661;SDS011;27351;45.992;12.666;2023-05-27T02:03:32;8.07;;;4.40;;
41661;SDS011;27351;45.992;12.666;2023-05-27T02:05:57;7.37;;;4.30;;
41661;SDS011;27351;45.992;12.666;2023-05-27T02:08:23;9.55;;;4.35;;
41661;SDS011;27351;45.992;12.666;2023-05-27T02:10:48;8.43;;;4.40;;
41661;SDS011;27351;45.992;12.666;2023-05-27T02:13:14;8.10;;;4.20;;
41661;SDS011;27351;45.992;12.666;2023-05-27T02:15:39;8.55;;;4.30;;
41661;SDS011;27351;45.992;12.666;2023-05-27T02:18:05;7.68;;;4.60;;
41661;SDS011;27351;45.992;12.666;2023-05-27T02:20:31;6.97;;;4.10;;
41661;SDS011;27351;45.992;12.666;2023-05-27T02:22:57;8.93;;;4.68;;
41661;SDS011;27351;45.992;12.666;2023-05-27T02:25:23;7.47;;;4.30;;
41661;SDS011;27351;45.992;12.666;2023-05-27T02:27:48;9.03;;;4.47;;
41661;SDS011;27351;45.992;12.666;2023-05-27T02:30:15;7.13;;;4.13;;
41661;SDS011;27351;45.992;12.666;2023-05-27T02:32:41;8.65;;;4.82;;
41661;SDS011;27351;45.992;12.666;2023-05-27T02:35:07;10.60;;;4.45;;
41661;SDS011;27351;45.992;12.666;2023-05-27T02:37:34;7.13;;;4.30;;
41661;SDS011;27351;45.992;12.666;2023-05-27T02:40:00;8.60;;;4.27;;
41661;SDS011;27351;45.992;12.666;2023-05-27T02:42:26;8.45;;;4.40;;
41661;SDS011;27351;45.992;12.666;2023-05-27T02:44:52;8.90;;;4.55;;
41661;SDS011;27351;45.992;12.666;2023-05-27T02:47:18;11.07;;;4.47;;
41661;SDS011;27351;45.992;12.666;2023-05-27T02:49:44;7.90;;;4.13;;
41661;SDS011;27351;45.992;12.666;2023-05-27T02:52:09;10.07;;;4.63;;
41661;SDS011;27351;45.992;12.666;2023-05-27T02:54:35;7.30;;;4.43;;
41661;SDS011;27351;45.992;12.666;2023-05-27T02:57:01;8.10;;;4.37;;
41661;SDS011;27351;45.992;12.666;2023-05-27T02:59:27;7.95;;;4.45;;
41661;SDS011;27351;45.992;12.666;2023-05-27T03:01:52;7.70;;;4.17;;
41661;SDS011;27351;45.992;12.666;2023-05-27T03:04:17;10.37;;;5.20;;
41661;SDS011;27351;45.992;12.666;2023-05-27T03:06:43;9.93;;;4.82;;
41661;SDS011;27351;45.992;12.666;2023-05-27T03:09:08;8.33;;;4.63;;
41661;SDS011;27351;45.992;12.666;2023-05-27T03:11:35;8.90;;;4.90;;
41661;SDS011;27351;45.992;12.666;2023-05-27T03:14:00;9.20;;;5.00;;
41661;SDS011;27351;45.992;12.666;2023-05-27T03:16:26;10.03;;;5.30;;
41661;SDS011;27351;45.992;12.666;2023-05-27T03:18:51;9.15;;;5.03;;
41661;SDS011;27351;45.992;12.666;2023-05-27T03:21:17;8.80;;;4.80;;
41661;SDS011;27351;45.992;12.666;2023-05-27T03:23:43;10.30;;;5.00;;
41661;SDS011;27351;45.992;12.666;2023-05-27T03:26:09;10.17;;;4.70;;
41661;SDS011;27351;45.992;12.666;2023-05-27T03:28:35;9.77;;;4.80;;
41661;SDS011;27351;45.992;12.666;2023-05-27T03:31:00;9.43;;;5.18;;
41661;SDS011;27351;45.992;12.666;2023-05-27T03:33:46;10.15;;;5.03;;
41661;SDS011;27351;45.992;12.666;2023-05-27T03:36:12;11.97;;;4.87;;
41661;SDS011;27351;45.992;12.666;2023-05-27T03:38:37;9.30;;;4.93;;
41661;SDS011;27351;45.992;12.666;2023-05-27T03:41:02;8.10;;;5.00;;
41661;SDS011;27351;45.992;12.666;2023-05-27T03:43:29;10.30;;;5.07;;
41661;SDS011;27351;45.992;12.666;2023-05-27T03:45:55;10.05;;;5.85;;
41661;SDS011;27351;45.992;12.666;2023-05-27T03:48:20;10.93;;;5.00;;
41661;SDS011;27351;45.992;12.666;2023-05-27T03:50:46;7.57;;;4.73;;
41661;SDS011;27351;45.992;12.666;2023-05-27T03:53:11;8.80;;;5.07;;
41661;SDS011;27351;45.992;12.666;2023-05-27T03:55:37;8.95;;;5.45;;
41661;SDS011;27351;45.992;12.666;2023-05-27T03:58:02;10.43;;;5.70;;
41661;SDS011;27351;45.992;12.666;2023-05-27T04:00:32;10.20;;;5.15;;
41661;SDS011;27351;45.992;12.666;2023-05-27T04:02:58;8.75;;;5.43;;
41661;SDS011;27351;45.992;12.666;2023-05-27T04:05:24;9.07;;;5.63;;
41661;SDS011;27351;45.992;12.666;2023-05-27T04:07:50;10.32;;;5.20;;
41661;SDS011;27351;45.992;12.666;2023-05-27T04:10:17;9.32;;;5.40;;
41661;SDS011;27351;45.992;12.666;2023-05-27T04:12:43;9.17;;;5.40;;
41661;SDS011;27351;45.992;12.666;2023-05-27T04:15:08;10.38;;;5.57;;
41661;SDS011;27351;45.992;12.666;2023-05-27T04:17:34;9.20;;;5.22;;
41661;SDS011;27351;45.992;12.666;2023-05-27T04:20:00;8.43;;;4.82;;
41661;SDS011;27351;45.992;12.666;2023-05-27T04:22:26;8.68;;;5.20;;
41661;SDS011;27351;45.992;12.666;2023-05-27T04:24:52;9.25;;;5.50;;
41661;SDS011;27351;45.992;12.666;2023-05-27T04:27:18;9.75;;;5.22;;
41661;SDS011;27351;45.992;12.666;2023-05-27T04:29:45;8.27;;;4.95;;
41661;SDS011;27351;45.992;12.666;2023-05-27T04:32:12;8.48;;;5.10;;
41661;SDS011;27351;45.992;12.666;2023-05-27T04:34:38;9.52;;;5.53;;
41661;SDS011;27351;45.992;12.666;2023-05-27T04:37:07;10.07;;;5.55;;
41661;SDS011;27351;45.992;12.666;2023-05-27T04:39:35;9.60;;;5.32;;
41661;SDS011;27351;45.992;12.666;2023-05-27T04:42:01;8.93;;;5.63;;
41661;SDS011;27351;45.992;12.666;2023-05-27T04:44:30;10.57;;;6.32;;
41661;SDS011;27351;45.992;12.666;2023-05-27T04:46:58;9.57;;;5.60;;
41661;SDS011;27351;45.992;12.666;2023-05-27T04:49:24;9.97;;;5.47;;
41661;SDS011;27351;45.992;12.666;2023-05-27T04:51:50;9.73;;;5.63;;
41661;SDS011;27351;45.992;12.666;2023-05-27T04:54:18;9.07;;;5.13;;
41661;SDS011;27351;45.992;12.666;2023-05-27T04:56:45;9.85;;;5.30;;
41661;SDS011;27351;45.992;12.666;2023-05-27T04:59:16;11.23;;;5.50;;
41661;SDS011;27351;45.992;12.666;2023-05-27T05:01:44;9.35;;;5.13;;
41661;SDS011;27351;45.992;12.666;2023-05-27T05:04:39;8.85;;;5.05;;
41661;SDS011;27351;45.992;12.666;2023-05-27T05:07:06;8.57;;;5.00;;
41661;SDS011;27351;45.992;12.666;2023-05-27T05:09:34;8.13;;;5.15;;
41661;SDS011;27351;45.992;12.666;2023-05-27T05:12:07;9.52;;;5.30;;
41661;SDS011;27351;45.992;12.666;2023-05-27T05:14:37;8.73;;;5.40;;
41661;SDS011;27351;45.992;12.666;2023-05-27T05:17:03;9.53;;;5.37;;
41661;SDS011;27351;45.992;12.666;2023-05-27T05:19:29;9.17;;;5.20;;
41661;SDS011;27351;45.992;12.666;2023-05-27T05:21:55;8.47;;;5.20;;
41661;SDS011;27351;45.992;12.666;2023-05-27T05:24:20;9.48;;;4.80;;
41661;SDS011;27351;45.992;12.666;2023-05-27T05:26:47;8.10;;;5.22;;
41661;SDS011;27351;45.992;12.666;2023-05-27T05:29:13;9.02;;;5.28;;
41661;SDS011;27351;45.992;12.666;2023-05-27T05:31:40;9.25;;;5.03;;
41661;SDS011;27351;45.992;12.666;2023-05-27T05:34:08;10.60;;;5.25;;
41661;SDS011;27351;45.992;12.666;2023-05-27T05:36:36;8.82;;;4.93;;
41661;SDS011;27351;45.992;12.666;2023-05-27T05:39:05;9.77;;;5.05;;
41661;SDS011;27351;45.992;12.666;2023-05-27T05:41:32;9.25;;;4.93;;
41661;SDS011;27351;45.992;12.666;2023-05-27T05:43:57;8.25;;;5.32;;
41661;SDS011;27351;45.992;12.666;2023-05-27T05:46:23;7.95;;;5.00;;
41661;SDS011;27351;45.992;12.666;2023-05-27T05:48:51;9.57;;;4.80;;
41661;SDS011;27351;45.992;12.666;2023-05-27T05:51:22;8.70;;;4.68;;
41661;SDS011;27351;45.992;12.666;2023-05-27T05:53:55;9.52;;;5.32;;
41661;SDS011;27351;45.992;12.666;2023-05-27T05:56:22;8.30;;;4.60;;
41661;SDS011;27351;45.992;12.666;2023-05-27T05:58:47;8.05;;;4.55;;
41661;SDS011;27351;45.992;12.666;2023-05-27T06:01:13;8.05;;;4.70;;
41661;SDS011;27351;45.992;12.666;2023-05-27T06:03:41;8.93;;;4.90;;
41661;SDS011;27351;45.992;12.666;2023-05-27T06:06:12;7.90;;;4.63;;
41661;SDS011;27351;45.992;12.666;2023-05-27T06:09:01;8.73;;;4.77;;
41661;SDS011;27351;45.992;12.666;2023-05-27T06:11:27;7.95;;;4.43;;
41661;SDS011;27351;45.992;12.666;2023-05-27T06:13:55;7.32;;;4.20;;
41661;SDS011;27351;45.992;12.666;2023-05-27T06:16:20;13.70;;;5.38;;
41661;SDS011;27351;45.992;12.666;2023-05-27T06:18:46;7.60;;;4.70;;
41661;SDS011;27351;45.992;12.666;2023-05-27T06:21:12;7.10;;;4.30;;
41661;SDS011;27351;45.992;12.666;2023-05-27T06:23:58;8.13;;;4.63;;
41661;SDS011;27351;45.992;12.666;2023-05-27T06:26:26;8.63;;;4.57;;
41661;SDS011;27351;45.992;12.666;2023-05-27T06:28:56;10.13;;;4.63;;
41661;SDS011;27351;45.992;12.666;2023-05-27T06:31:23;8.80;;;4.70;;
41661;SDS011;27351;45.992;12.666;2023-05-27T06:33:48;8.40;;;4.87;;
41661;SDS011;27351;45.992;12.666;2023-05-27T06:36:14;7.95;;;4.30;;
41661;SDS011;27351;45.992;12.666;2023-05-27T06:38:41;7.13;;;4.32;;
41661;SDS011;27351;45.992;12.666;2023-05-27T06:41:06;7.93;;;4.33;;
41661;SDS011;27351;45.992;12.666;2023-05-27T06:43:36;8.60;;;4.22;;
41661;SDS011;27351;45.992;12.666;2023-05-27T06:46:12;7.63;;;4.30;;
41661;SDS011;27351;45.992;12.666;2023-05-27T06:49:00;9.85;;;4.63;;
41661;SDS011;27351;45.992;12.666;2023-05-27T06:51:27;7.90;;;4.47;;
41661;SDS011;27351;45.992;12.666;2023-05-27T06:53:55;8.83;;;4.80;;
41661;SDS011;27351;45.992;12.666;2023-05-27T06:56:25;7.85;;;4.30;;
41661;SDS011;27351;45.992;12.666;2023-05-27T06:59:09;8.57;;;4.40;;
41661;SDS011;27351;45.992;12.666;2023-05-27T07:11:57;8.83;;;5.40;;
41661;SDS011;27351;45.992;12.666;2023-05-27T07:14:45;9.93;;;4.70;;
41661;SDS011;27351;45.992;12.666;2023-05-27T07:17:12;8.82;;;5.25;;
41661;SDS011;27351;45.992;12.666;2023-05-27T07:19:37;9.80;;;4.50;;
41661;SDS011;27351;45.992;12.666;2023-05-27T07:22:06;10.05;;;5.38;;
41661;SDS011;27351;45.992;12.666;2023-05-27T07:24:32;9.25;;;5.25;;
41661;SDS011;27351;45.992;12.666;2023-05-27T07:26:58;9.30;;;5.90;;
41661;SDS011;27351;45.992;12.666;2023-05-27T07:29:26;9.20;;;5.50;;
41661;SDS011;27351;45.992;12.666;2023-05-27T07:31:51;8.43;;;5.00;;
41661;SDS011;27351;45.992;12.666;2023-05-27T07:34:19;8.68;;;5.25;;
41661;SDS011;27351;45.992;12.666;2023-05-27T07:36:47;8.32;;;5.18;;
41661;SDS011;27351;45.992;12.666;2023-05-27T07:39:12;8.85;;;4.95;;
41661;SDS011;27351;45.992;12.666;2023-05-27T07:41:39;8.20;;;4.43;;
41661;SDS011;27351;45.992;12.666;2023-05-27T07:44:05;8.77;;;4.70;;
41661;SDS011;27351;45.992;12.666;2023-05-27T07:46:30;8.05;;;4.43;;
41661;SDS011;27351;45.992;12.666;2023-05-27T07:48:56;8.80;;;4.67;;
41661;SDS011;27351;45.992;12.666;2023-05-27T07:51:23;7.47;;;4.47;;
41661;SDS011;27351;45.992;12.666;2023-05-27T07:53:49;10.98;;;4.72;;
41661;SDS011;27351;45.992;12.666;2023-05-27T07:56:16;8.85;;;4.65;;
41661;SDS011;27351;45.992;12.666;2023-05-27T07:58:42;8.90;;;4.63;;
41661;SDS011;27351;45.992;12.666;2023-05-27T08:01:10;7.28;;;4.40;;
41661;SDS011;27351;45.992;12.666;2023-05-27T08:03:37;10.20;;;4.93;;
41661;SDS011;27351;45.992;12.666;2023-05-27T08:06:23;7.72;;;4.50;;
41661;SDS011;27351;45.992;12.666;2023-05-27T08:09:21;7.85;;;4.90;;
41661;SDS011;27351;45.992;12.666;2023-05-27T08:12:09;8.32;;;4.85;;
41661;SDS011;27351;45.992;12.666;2023-05-27T08:14:54;9.02;;;4.70;;
41661;SDS011;27351;45.992;12.666;2023-05-27T08:17:43;7.53;;;4.72;;
41661;SDS011;27351;45.992;12.666;2023-05-27T08:20:41;8.85;;;4.60;;
41661;SDS011;27351;45.992;12.666;2023-05-27T08:23:33;9.75;;;5.20;;
41661;SDS011;27351;45.992;12.666;2023-05-27T08:26:21;9.93;;;5.22;;
41661;SDS011;27351;45.992;12.666;2023-05-27T08:28:56;9.18;;;4.70;;
41661;SDS011;27351;45.992;12.666;2023-05-27T08:31:42;10.48;;;5.13;;
41661;SDS011;27351;45.992;12.666;2023-05-27T08:34:08;8.53;;;4.97;;
41661;SDS011;27351;45.992;12.666;2023-05-27T08:36:34;9.95;;;5.45;;
41661;SDS011;27351;45.992;12.666;2023-05-27T08:39:01;9.77;;;4.77;;
41661;SDS011;27351;45.992;12.666;2023-05-27T08:41:36;9.13;;;5.10;;
41661;SDS011;27351;45.992;12.666;2023-05-27T08:44:03;9.55;;;5.15;;
41661;SDS011;27351;45.992;12.666;2023-05-27T08:46:29;9.60;;;5.00;;
41661;SDS011;27351;45.992;12.666;2023-05-27T08:48:55;8.18;;;4.90;;
41661;SDS011;27351;45.992;12.666;2023-05-27T08:51:23;8.13;;;4.80;;
41661;SDS011;27351;45.992;12.666;2023-05-27T08:53:49;10.03;;;5.00;;
41661;SDS011;27351;45.992;12.666;2023-05-27T08:56:15;10.63;;;5.30;;
41661;SDS011;27351;45.992;12.666;2023-05-27T08:58:45;10.27;;;5.20;;
41661;SDS011;27351;45.992;12.666;2023-05-27T09:01:11;8.90;;;4.83;;
41661;SDS011;27351;45.992;12.666;2023-05-27T09:03:38;10.90;;;5.35;;
41661;SDS011;27351;45.992;12.666;2023-05-27T09:06:04;9.73;;;5.30;;
41661;SDS011;27351;45.992;12.666;2023-05-27T09:08:30;9.68;;;5.13;;
41661;SDS011;27351;45.992;12.666;2023-05-27T09:10:55;11.73;;;5.10;;
41661;SDS011;27351;45.992;12.666;2023-05-27T09:13:28;10.85;;;5.20;;
41661;SDS011;27351;45.992;12.666;2023-05-27T09:15:58;9.80;;;5.20;;
41661;SDS011;27351;45.992;12.666;2023-05-27T09:18:25;10.60;;;5.05;;
41661;SDS011;27351;45.992;12.666;2023-05-27T09:20:53;9.82;;;5.05;;
41661;SDS011;27351;45.992;12.666;2023-05-27T09:23:18;9.10;;;5.40;;
41661;SDS011;27351;45.992;12.666;2023-05-27T09:25:44;10.35;;;5.18;;
41661;SDS011;27351;45.992;12.666;2023-05-27T09:28:10;8.70;;;5.05;;
41661;SDS011;27351;45.992;12.666;2023-05-27T09:30:36;8.90;;;5.27;;
41661;SDS011;27351;45.992;12.666;2023-05-27T09:33:02;8.30;;;4.78;;
41661;SDS011;27351;45.992;12.666;2023-05-27T09:35:28;9.35;;;5.32;;
41661;SDS011;27351;45.992;12.666;2023-05-27T09:37:54;9.37;;;4.90;;
41661;SDS011;27351;45.992;12.666;2023-05-27T09:40:30;9.65;;;4.53;;
41661;SDS011;27351;45.992;12.666;2023-05-27T09:42:56;8.48;;;4.63;;
41661;SDS011;27351;45.992;12.666;2023-05-27T09:45:22;10.35;;;4.88;;
41661;SDS011;27351;45.992;12.666;2023-05-27T09:47:51;10.18;;;4.60;;
41661;SDS011;27351;45.992;12.666;2023-05-27T09:50:18;9.90;;;5.05;;
41661;SDS011;27351;45.992;12.666;2023-05-27T09:52:45;9.50;;;5.22;;
41661;SDS011;27351;45.992;12.666;2023-05-27T09:55:13;8.80;;;4.95;;
41661;SDS011;27351;45.992;12.666;2023-05-27T09:57:39;9.07;;;5.18;;
41661;SDS011;27351;45.992;12.666;2023-05-27T10:00:05;8.30;;;4.85;;
41661;SDS011;27351;45.992;12.666;2023-05-27T10:02:44;9.97;;;4.80;;
41661;SDS011;27351;45.992;12.666;2023-05-27T10:05:11;10.05;;;4.88;;
41661;SDS011;27351;45.992;12.666;2023-05-27T10:07:38;9.20;;;4.90;;
41661;SDS011;27351;45.992;12.666;2023-05-27T10:10:07;10.93;;;5.22;;
41661;SDS011;27351;45.992;12.666;2023-05-27T10:12:41;8.55;;;4.78;;
41661;SDS011;27351;45.992;12.666;2023-05-27T10:15:07;8.63;;;4.60;;
41661;SDS011;27351;45.992;12.666;2023-05-27T10:20:08;10.60;;;4.80;;
41661;SDS011;27351;45.992;12.666;2023-05-27T10:22:45;7.15;;;4.63;;
41661;SDS011;27351;45.992;12.666;2023-05-27T10:25:11;8.40;;;5.03;;
41661;SDS011;27351;45.992;12.666;2023-05-27T10:27:47;8.88;;;4.80;;
41661;SDS011;27351;45.992;12.666;2023-05-27T10:30:13;8.40;;;5.22;;
41661;SDS011;27351;45.992;12.666;2023-05-27T10:32:49;8.95;;;5.60;;
41661;SDS011;27351;45.992;12.666;2023-05-27T10:35:16;9.23;;;5.43;;
41661;SDS011;27351;45.992;12.666;2023-05-27T10:37:47;8.98;;;5.00;;
41661;SDS011;27351;45.992;12.666;2023-05-27T10:40:23;9.50;;;4.28;;
41661;SDS011;27351;45.992;12.666;2023-05-27T10:42:57;8.13;;;4.60;;
41661;SDS011;27351;45.992;12.666;2023-05-27T10:45:30;9.30;;;4.47;;
41661;SDS011;27351;45.992;12.666;2023-05-27T10:47:56;10.50;;;4.70;;
41661;SDS011;27351;45.992;12.666;2023-05-27T10:50:22;8.77;;;4.60;;
41661;SDS011;27351;45.992;12.666;2023-05-27T10:52:54;8.87;;;5.40;;
41661;SDS011;27351;45.992;12.666;2023-05-27T10:55:20;9.27;;;5.10;;
41661;SDS011;27351;45.992;12.666;2023-05-27T10:57:46;11.13;;;5.68;;
41661;SDS011;27351;45.992;12.666;2023-05-27T11:00:12;9.23;;;4.25;;
41661;SDS011;27351;45.992;12.666;2023-05-27T11:02:40;9.32;;;5.10;;
41661;SDS011;27351;45.992;12.666;2023-05-27T11:05:09;7.65;;;4.10;;
41661;SDS011;27351;45.992;12.666;2023-05-27T11:07:36;9.43;;;4.28;;
41661;SDS011;27351;45.992;12.666;2023-05-27T11:10:01;8.88;;;4.60;;
41661;SDS011;27351;45.992;12.666;2023-05-27T11:12:27;7.75;;;4.45;;
41661;SDS011;27351;45.992;12.666;2023-05-27T11:14:56;9.27;;;4.17;;
41661;SDS011;27351;45.992;12.666;2023-05-27T11:17:22;9.82;;;4.45;;
41661;SDS011;27351;45.992;12.666;2023-05-27T11:19:48;8.65;;;4.50;;
41661;SDS011;27351;45.992;12.666;2023-05-27T11:22:15;9.20;;;5.30;;
41661;SDS011;27351;45.992;12.666;2023-05-27T11:24:42;7.22;;;4.15;;
41661;SDS011;27351;45.992;12.666;2023-05-27T11:27:08;7.88;;;4.20;;
41661;SDS011;27351;45.992;12.666;2023-05-27T11:29:36;7.68;;;4.43;;
41661;SDS011;27351;45.992;12.666;2023-05-27T11:32:02;8.53;;;4.33;;
41661;SDS011;27351;45.992;12.666;2023-05-27T11:34:28;7.33;;;4.17;;
41661;SDS011;27351;45.992;12.666;2023-05-27T11:36:53;7.20;;;4.10;;
41661;SDS011;27351;45.992;12.666;2023-05-27T11:39:19;7.10;;;4.40;;
41661;SDS011;27351;45.992;12.666;2023-05-27T11:41:49;8.52;;;4.35;;
41661;SDS011;27351;45.992;12.666;2023-05-27T11:44:15;7.57;;;4.38;;
41661;SDS011;27351;45.992;12.666;2023-05-27T11:46:42;8.13;;;3.97;;
41661;SDS011;27351;45.992;12.666;2023-05-27T11:49:09;8.00;;;4.45;;
41661;SDS011;27351;45.992;12.666;2023-05-27T11:51:49;8.57;;;4.30;;
41661;SDS011;27351;45.992;12.666;2023-05-27T11:54:17;9.30;;;4.60;;
41661;SDS011;27351;45.992;12.666;2023-05-27T11:56:43;8.55;;;4.07;;
41661;SDS011;27351;45.992;12.666;2023-05-27T11:59:08;7.20;;;4.30;;
41661;SDS011;27351;45.992;12.666;2023-05-27T12:01:34;9.38;;;4.70;;
41661;SDS011;27351;45.992;12.666;2023-05-27T12:04:00;7.20;;;4.30;;
41661;SDS011;27351;45.992;12.666;2023-05-27T12:06:25;10.77;;;4.60;;
41661;SDS011;27351;45.992;12.666;2023-05-27T12:08:51;9.65;;;4.45;;
41661;SDS011;27351;45.992;12.666;2023-05-27T12:11:16;8.20;;;4.70;;
41661;SDS011;27351;45.992;12.666;2023-05-27T12:13:42;8.70;;;4.50;;
41661;SDS011;27351;45.992;12.666;2023-05-27T12:16:07;10.27;;;4.30;;
41661;SDS011;27351;45.992;12.666;2023-05-27T12:18:33;10.50;;;4.57;;
41661;SDS011;27351;45.992;12.666;2023-05-27T12:20:59;9.75;;;4.03;;
41661;SDS011;27351;45.992;12.666;2023-05-27T12:23:24;8.52;;;4.28;;
41661;SDS011;27351;45.992;12.666;2023-05-27T12:25:50;9.67;;;4.10;;
41661;SDS011;27351;45.992;12.666;2023-05-27T12:28:16;8.32;;;4.38;;
41661;SDS011;27351;45.992;12.666;2023-05-27T12:30:41;9.73;;;4.70;;
41661;SDS011;27351;45.992;12.666;2023-05-27T12:33:07;7.80;;;4.30;;
41661;SDS011;27351;45.992;12.666;2023-05-27T12:35:33;8.43;;;3.88;;
41661;SDS011;27351;45.992;12.666;2023-05-27T12:37:59;8.60;;;4.28;;
41661;SDS011;27351;45.992;12.666;2023-05-27T12:40:25;9.75;;;4.80;;
41661;SDS011;27351;45.992;12.666;2023-05-27T12:42:50;7.88;;;3.90;;
41661;SDS011;27351;45.992;12.666;2023-05-27T12:45:16;7.70;;;4.23;;
41661;SDS011;27351;45.992;12.666;2023-05-27T12:47:42;9.27;;;4.00;;
41661;SDS011;27351;45.992;12.666;2023-05-27T12:50:08;7.93;;;4.17;;
41661;SDS011;27351;45.992;12.666;2023-05-27T12:52:33;8.15;;;4.10;;
41661;SDS011;27351;45.992;12.666;2023-05-27T12:55:01;9.63;;;4.22;;
41661;SDS011;27351;45.992;12.666;2023-05-27T12:57:26;8.23;;;4.13;;
41661;SDS011;27351;45.992;12.666;2023-05-27T12:59:52;8.07;;;3.67;;
41661;SDS011;27351;45.992;12.666;2023-05-27T13:02:18;6.85;;;3.80;;
41661;SDS011;27351;45.992;12.666;2023-05-27T13:04:43;7.97;;;4.07;;
41661;SDS011;27351;45.992;12.666;2023-05-27T13:07:10;8.05;;;3.97;;
41661;SDS011;27351;45.992;12.666;2023-05-27T13:09:37;7.13;;;3.97;;
41661;SDS011;27351;45.992;12.666;2023-05-27T13:12:02;7.35;;;4.00;;
41661;SDS011;27351;45.992;12.666;2023-05-27T13:14:28;8.48;;;4.28;;
41661;SDS011;27351;45.992;12.666;2023-05-27T13:16:53;6.95;;;3.80;;
41661;SDS011;27351;45.992;12.666;2023-05-27T13:19:20;8.70;;;4.27;;
41661;SDS011;27351;45.992;12.666;2023-05-27T13:21:45;10.00;;;4.30;;
41661;SDS011;27351;45.992;12.666;2023-05-27T13:24:11;7.35;;;3.65;;
41661;SDS011;27351;45.992;12.666;2023-05-27T13:26:37;8.30;;;4.30;;
41661;SDS011;27351;45.992;12.666;2023-05-27T13:29:02;9.67;;;4.03;;
41661;SDS011;27351;45.992;12.666;2023-05-27T13:31:28;8.97;;;4.03;;
41661;SDS011;27351;45.992;12.666;2023-05-27T13:33:54;7.55;;;4.15;;
41661;SDS011;27351;45.992;12.666;2023-05-27T13:36:19;9.90;;;4.80;;
41661;SDS011;27351;45.992;12.666;2023-05-27T13:38:45;7.32;;;4.15;;
41661;SDS011;27351;45.992;12.666;2023-05-27T13:41:10;9.97;;;4.00;;
41661;SDS011;27351;45.992;12.666;2023-05-27T13:43:36;9.63;;;4.00;;
41661;SDS011;27351;45.992;12.666;2023-05-27T13:46:02;8.03;;;3.80;;
41661;SDS011;27351;45.992;12.666;2023-05-27T13:48:27;7.80;;;3.93;;
41661;SDS011;27351;45.992;12.666;2023-05-27T13:50:53;6.55;;;3.60;;
41661;SDS011;27351;45.992;12.666;2023-05-27T13:53:18;10.47;;;4.20;;
41661;SDS011;27351;45.992;12.666;2023-05-27T13:55:44;8.00;;;3.95;;
41661;SDS011;27351;45.992;12.666;2023-05-27T13:58:10;7.68;;;4.30;;
41661;SDS011;27351;45.992;12.666;2023-05-27T14:00:36;8.23;;;4.40;;
41661;SDS011;27351;45.992;12.666;2023-05-27T14:03:02;7.75;;;3.60;;
41661;SDS011;27351;45.992;12.666;2023-05-27T14:05:27;6.57;;;3.97;;
41661;SDS011;27351;45.992;12.666;2023-05-27T14:07:54;7.97;;;3.78;;
41661;SDS011;27351;45.992;12.666;2023-05-27T14:10:19;7.68;;;3.78;;
41661;SDS011;27351;45.992;12.666;2023-05-27T14:12:45;7.43;;;3.80;;
41661;SDS011;27351;45.992;12.666;2023-05-27T14:15:11;6.55;;;3.75;;
41661;SDS011;27351;45.992;12.666;2023-05-27T14:17:37;9.43;;;3.97;;
41661;SDS011;27351;45.992;12.666;2023-05-27T14:20:03;6.35;;;3.80;;
41661;SDS011;27351;45.992;12.666;2023-05-27T14:22:29;6.88;;;3.65;;
41661;SDS011;27351;45.992;12.666;2023-05-27T14:24:54;9.13;;;3.90;;
41661;SDS011;27351;45.992;12.666;2023-05-27T14:27:20;8.97;;;4.13;;
41661;SDS011;27351;45.992;12.666;2023-05-27T14:29:46;8.30;;;3.80;;
41661;SDS011;27351;45.992;12.666;2023-05-27T14:32:11;9.13;;;4.33;;
41661;SDS011;27351;45.992;12.666;2023-05-27T14:34:37;10.03;;;5.47;;
41661;SDS011;27351;45.992;12.666;2023-05-27T14:37:02;7.55;;;4.50;;
41661;SDS011;27351;45.992;12.666;2023-05-27T14:39:28;7.33;;;3.90;;
41661;SDS011;27351;45.992;12.666;2023-05-27T14:41:54;7.07;;;3.90;;
41661;SDS011;27351;45.992;12.666;2023-05-27T14:44:20;7.15;;;3.92;;
41661;SDS011;27351;45.992;12.666;2023-05-27T14:46:46;7.13;;;3.93;;
41661;SDS011;27351;45.992;12.666;2023-05-27T14:49:12;9.55;;;4.07;;
41661;SDS011;27351;45.992;12.666;2023-05-27T14:51:37;8.73;;;4.30;;